Time;durP1;ratioP1;P1;durP2;ratioP2;P2;SDS_P1;SDS_P2;PMS_P1;PMS_P2;Temp;Humidity;BMP_temperature;BMP_pressure;BME280_temperature;BME280_humidity;BME280_pressure;Samples;Min_cycle;Max_cycle;Signal;HPM_P1;HPM_P2
2023/04/11 00:00:08;;;;;;;3.08;2.13;;;;;;;20.44;37.99;100638.56;5044422;28;20041;-78
2023/04/11 00:02:40;;;;;;;3.60;2.40;;;;;;;20.38;37.95;100611.03;5047601;28;20044;-78
2023/04/11 00:05:06;;;;;;;2.50;1.90;;;;;;;20.40;37.92;100542.88;5052100;28;20048;-77
2023/04/11 00:07:31;;;;;;;4.20;2.10;;;;;;;20.42;37.82;100563.88;5044881;28;20145;-77
2023/04/11 00:09:57;;;;;;;4.80;2.60;;;;;;;20.38;37.63;100589.88;5050371;28;20254;-77
2023/04/11 00:12:22;;;;;;;3.38;2.58;;;;;;;20.39;37.97;100598.63;5048512;28;20041;-77
2023/04/11 00:14:48;;;;;;;3.42;2.28;;;;;;;20.36;37.86;100586.59;5044991;28;20050;-78
2023/04/11 00:17:16;;;;;;;3.42;2.13;;;;;;;20.39;38.10;100593.31;5048809;28;20044;-77
2023/04/11 00:19:42;;;;;;;2.80;2.00;;;;;;;20.38;37.84;100592.50;5051351;28;20061;-77
2023/04/11 00:22:12;;;;;;;2.17;1.92;;;;;;;20.39;37.90;100580.94;5050609;28;20043;-78
2023/04/11 00:24:38;;;;;;;2.03;1.90;;;;;;;20.38;37.83;100576.66;5047452;28;20036;-77
2023/04/11 00:27:05;;;;;;;3.92;2.10;;;;;;;20.32;38.07;100577.41;5044894;28;20045;-78
2023/04/11 00:29:32;;;;;;;3.20;2.00;;;;;;;20.46;37.94;100576.53;5052647;28;20033;-77
2023/04/11 00:31:59;;;;;;;3.95;2.20;;;;;;;20.45;37.84;100584.66;5050272;28;20048;-77
2023/04/11 00:34:26;;;;;;;4.38;2.17;;;;;;;20.38;37.91;100579.28;5049150;28;20033;-77
2023/04/11 00:36:52;;;;;;;3.05;1.83;;;;;;;20.33;38.10;100583.50;5052216;28;20041;-77
2023/04/11 00:39:19;;;;;;;3.35;1.98;;;;;;;20.32;38.15;100581.88;5048977;28;20045;-77
2023/04/11 00:41:45;;;;;;;2.80;1.70;;;;;;;20.38;37.93;100591.69;5049988;28;20037;-77
2023/04/11 00:44:12;;;;;;;2.83;1.88;;;;;;;20.37;37.75;100590.88;5048380;28;20049;-77
2023/04/11 00:46:42;;;;;;;2.95;2.10;;;;;;;20.30;37.86;100590.00;5048848;28;20036;-77
2023/04/11 00:49:08;;;;;;;3.72;2.45;;;;;;;20.31;37.82;100583.72;5048543;28;20030;-77
2023/04/11 00:51:34;;;;;;;2.97;1.67;;;;;;;20.28;38.28;100592.00;5042437;28;20075;-77
2023/04/11 00:54:00;;;;;;;2.05;1.83;;;;;;;20.31;37.89;100596.13;5041580;28;20325;-77
2023/04/11 00:56:27;;;;;;;2.63;1.80;;;;;;;20.36;37.92;100599.00;5049368;28;20336;-77
2023/04/11 00:58:53;;;;;;;3.58;2.10;;;;;;;20.36;37.94;100601.66;5061703;28;20052;-77
2023/04/11 01:01:22;;;;;;;2.72;2.13;;;;;;;20.31;37.95;100602.22;5045446;28;20037;-77
2023/04/11 01:03:48;;;;;;;3.77;2.03;;;;;;;20.31;37.93;100593.47;5050053;28;20040;-77
2023/04/11 01:06:17;;;;;;;2.28;1.65;;;;;;;20.32;37.87;100597.75;5044411;28;20037;-77
2023/04/11 01:08:43;;;;;;;2.03;1.42;;;;;;;20.25;37.89;100584.44;5056043;28;20079;-77
2023/04/11 01:11:11;;;;;;;2.67;1.77;;;;;;;20.26;38.13;100598.47;5050789;28;20044;-77
2023/04/11 01:13:40;;;;;;;2.67;1.77;;;;;;;20.25;37.98;100599.47;5048267;28;20041;-77
2023/04/11 01:16:07;;;;;;;4.38;1.98;;;;;;;20.21;38.05;100591.13;5043896;28;20033;-77
2023/04/11 01:18:33;;;;;;;2.63;1.90;;;;;;;20.26;38.04;100604.59;5047377;28;20143;-77
2023/04/11 01:20:59;;;;;;;2.92;1.75;;;;;;;20.23;38.11;100599.69;5049027;28;20538;-78
2023/04/11 01:23:26;;;;;;;1.88;1.50;;;;;;;20.20;38.12;100590.28;5048665;28;20276;-77
2023/04/11 01:25:51;;;;;;;3.53;1.73;;;;;;;20.20;38.02;100590.28;5043201;28;20038;-76
2023/04/11 01:28:20;;;;;;;2.13;1.55;;;;;;;20.28;37.79;100588.53;5045470;28;20040;-77
2023/04/11 01:30:46;;;;;;;2.05;1.40;;;;;;;20.16;38.16;100583.75;5060568;28;20041;-77
2023/04/11 01:33:14;;;;;;;2.72;1.60;;;;;;;20.23;38.04;100602.31;5050993;28;20095;-77
2023/04/11 01:35:40;;;;;;;2.60;1.63;;;;;;;20.27;38.03;100600.13;5047194;28;20129;-77
2023/04/11 01:38:05;;;;;;;3.55;1.73;;;;;;;20.18;37.91;100594.13;5049285;28;20040;-77
2023/04/11 01:40:32;;;;;;;2.15;1.63;;;;;;;20.19;37.91;100601.06;5046079;28;20123;-76
2023/04/11 01:42:58;;;;;;;2.15;1.33;;;;;;;20.20;37.91;100600.88;5047319;28;20044;-77
2023/04/11 01:45:25;;;;;;;2.45;1.45;;;;;;;20.15;37.89;100603.28;5050963;28;20601;-77
2023/04/11 01:47:53;;;;;;;2.10;1.52;;;;;;;20.15;37.94;100607.75;5043242;28;20076;-77
2023/04/11 01:50:22;;;;;;;3.30;1.42;;;;;;;20.16;38.09;100614.66;5044792;28;20055;-77
2023/04/11 01:52:49;;;;;;;3.88;1.80;;;;;;;20.25;37.95;100615.34;5044197;28;20030;-77
2023/04/11 01:55:16;;;;;;;1.65;1.48;;;;;;;20.11;37.95;100595.91;5045832;28;20025;-77
2023/04/11 01:57:41;;;;;;;3.17;1.52;;;;;;;20.20;38.06;100611.44;5044092;28;20045;-77
2023/04/11 02:00:09;;;;;;;3.63;2.05;;;;;;;20.19;38.10;100620.38;5048019;28;20063;-77
2023/04/11 02:02:40;;;;;;;3.53;1.83;;;;;;;20.19;38.13;100630.16;5044092;28;20064;-76
2023/04/11 02:05:06;;;;;;;2.92;1.55;;;;;;;20.16;38.23;100623.41;5031739;28;20064;-77
2023/04/11 02:07:32;;;;;;;3.42;1.73;;;;;;;20.19;38.10;100623.03;5046962;28;20063;-77
2023/04/11 02:09:59;;;;;;;1.90;1.33;;;;;;;20.19;37.96;100630.16;5043687;28;20716;-77
2023/04/11 02:12:25;;;;;;;3.58;1.88;;;;;;;20.16;37.97;100622.59;5047726;28;20029;-77
2023/04/11 02:14:50;;;;;;;2.30;1.25;;;;;;;20.13;38.20;100629.06;5048193;28;20041;-76
2023/04/11 02:17:17;;;;;;;2.50;1.27;;;;;;;20.11;38.00;100623.16;5055105;28;20041;-77
2023/04/11 02:19:46;;;;;;;2.38;1.30;;;;;;;20.19;38.10;100623.03;5048232;28;20056;-77
2023/04/11 02:22:14;;;;;;;2.88;1.70;;;;;;;20.14;37.82;100614.03;5039212;28;20104;-77
2023/04/11 02:24:40;;;;;;;2.58;1.67;;;;;;;20.18;37.94;100628.50;5029538;28;20041;-76
2023/04/11 02:27:06;;;;;;;1.80;1.60;;;;;;;20.08;38.02;100623.50;5042035;28;20029;-76
2023/04/11 02:29:32;;;;;;;2.22;1.13;;;;;;;20.13;38.10;100620.31;5049273;28;20098;-76
2023/04/11 02:31:57;;;;;;;3.30;1.60;;;;;;;20.11;38.13;100625.81;5059915;28;20203;-76
2023/04/11 02:34:23;;;;;;;2.03;1.48;;;;;;;20.10;38.24;100626.78;5032301;28;20041;-77
2023/04/11 02:36:49;;;;;;;3.60;1.42;;;;;;;20.09;38.21;100626.97;5042362;28;20488;-76
2023/04/11 02:39:14;;;;;;;2.00;1.52;;;;;;;20.09;38.12;100624.31;5056025;28;20036;-76
2023/04/11 02:41:41;;;;;;;1.95;1.20;;;;;;;20.09;38.13;100621.69;5058164;28;20836;-76
2023/04/11 02:44:09;;;;;;;2.05;1.50;;;;;;;20.12;38.06;100618.69;5045664;28;20033;-76
2023/04/11 02:46:35;;;;;;;1.48;1.33;;;;;;;20.12;38.18;100621.34;5043551;28;20040;-76
2023/04/11 02:49:02;;;;;;;2.72;1.42;;;;;;;20.16;37.94;100627.88;5029598;28;20037;-76
2023/04/11 02:51:28;;;;;;;1.42;1.23;;;;;;;20.12;38.10;100626.63;5039261;28;20045;-76
2023/04/11 02:53:54;;;;;;;1.58;1.20;;;;;;;20.12;38.10;100632.72;5041473;28;20045;-77
2023/04/11 02:56:21;;;;;;;1.08;1.00;;;;;;;20.11;38.12;100635.56;5047223;28;20048;-76
2023/04/11 02:58:54;;;;;;;1.77;1.20;;;;;;;20.06;38.15;100628.16;5045279;28;20047;-77
2023/04/11 03:01:23;;;;;;;2.00;1.33;;;;;;;20.04;38.05;100618.78;5043101;28;20091;-77
2023/04/11 03:03:49;;;;;;;1.42;1.15;;;;;;;20.12;37.91;100630.09;5042941;28;20036;-77
2023/04/11 03:06:15;;;;;;;2.40;1.30;;;;;;;20.08;38.21;100630.63;5043803;28;20082;-77
2023/04/11 03:08:42;;;;;;;1.63;1.02;;;;;;;20.10;38.12;100621.50;5046108;28;20036;-77
2023/04/11 03:11:07;;;;;;;1.13;0.70;;;;;;;20.07;38.17;100610.47;5040548;28;20048;-77
2023/04/11 03:13:35;;;;;;;0.98;0.80;;;;;;;20.05;38.11;100620.41;5030949;28;20056;-77
2023/04/11 03:16:01;;;;;;;1.50;1.30;;;;;;;20.03;38.31;100620.59;5056937;28;20045;-76
2023/04/11 03:18:29;;;;;;;2.05;1.17;;;;;;;20.03;38.42;100625.06;5039634;28;20033;-76
2023/04/11 03:20:56;;;;;;;1.10;0.90;;;;;;;20.01;38.24;100621.81;5045370;28;20037;-76
2023/04/11 03:23:22;;;;;;;2.10;1.33;;;;;;;20.01;38.31;100622.63;5046018;28;20052;-77
2023/04/11 03:25:48;;;;;;;2.53;1.05;;;;;;;20.03;38.02;100617.97;5058219;28;20543;-77
2023/04/11 03:28:16;;;;;;;1.33;0.90;;;;;;;19.97;38.30;100613.44;5055742;28;20033;-78
2023/04/11 03:30:42;;;;;;;1.10;0.90;;;;;;;19.98;38.29;100616.91;5046580;28;20040;-77
2023/04/11 03:33:10;;;;;;;1.65;1.27;;;;;;;20.05;38.16;100618.59;5043096;28;20072;-77
2023/04/11 03:35:36;;;;;;;1.60;1.20;;;;;;;20.05;38.08;100631.00;5043206;28;20041;-77
2023/04/11 03:38:01;;;;;;;2.35;1.17;;;;;;;19.96;38.17;100626.84;5049758;28;20037;-77
2023/04/11 03:40:27;;;;;;;1.67;1.20;;;;;;;19.99;38.02;100639.69;5046507;28;20056;-76
2023/04/11 03:43:05;;;;;;;1.48;0.90;;;;;;;20.06;38.22;100636.09;5046160;28;20108;-77
2023/04/11 03:45:33;;;;;;;1.27;0.80;;;;;;;20.03;38.15;100636.47;5050285;28;20049;-77
2023/04/11 03:48:02;;;;;;;2.85;1.55;;;;;;;20.04;38.10;100646.03;5045776;28;20128;-77
2023/04/11 03:50:41;;;;;;;1.40;0.98;;;;;;;20.00;38.48;100643.97;5046724;28;20057;-76
2023/04/11 03:53:07;;;;;;;1.30;1.10;;;;;;;19.96;38.36;100647.97;5046567;28;20120;-76
2023/04/11 03:55:33;;;;;;;2.08;1.30;;;;;;;20.01;38.13;100648.22;5050213;28;20036;-77
2023/04/11 03:58:01;;;;;;;1.55;0.88;;;;;;;19.95;38.27;100648.97;5048449;28;20509;-76
2023/04/11 04:00:27;;;;;;;1.27;0.80;;;;;;;19.99;38.17;100652.88;5047990;28;21042;-77
2023/04/11 04:03:02;;;;;;;2.83;1.27;;;;;;;19.85;38.41;100636.88;5044356;28;20049;-76
2023/04/11 04:05:28;;;;;;;1.38;1.08;;;;;;;19.95;38.21;100649.81;5033453;28;20098;-76
2023/04/11 04:07:53;;;;;;;0.95;0.90;;;;;;;19.96;38.23;100646.16;5046512;28;20602;-76
2023/04/11 04:10:46;;;;;;;2.42;1.13;;;;;;;19.98;38.33;100649.44;5043847;28;20037;-77
2023/04/11 04:13:12;;;;;;;1.27;0.90;;;;;;;19.92;38.31;100642.22;5046139;28;20037;-77
2023/04/11 04:15:42;;;;;;;1.83;1.52;;;;;;;19.91;38.03;100651.97;5045888;28;20038;-77
2023/04/11 04:18:09;;;;;;;1.75;0.80;;;;;;;19.92;38.39;100658.91;5043949;28;20033;-77
2023/04/11 04:20:46;;;;;;;1.17;1.10;;;;;;;19.95;38.35;100648.97;5047242;28;20045;-77
2023/04/11 04:23:12;;;;;;;2.17;0.95;;;;;;;19.94;38.22;100645.53;5048556;28;20041;-77
2023/04/11 04:26:00;;;;;;;1.15;0.75;;;;;;;19.96;38.28;100646.16;5045907;28;20045;-77
2023/04/11 04:28:28;;;;;;;1.50;1.00;;;;;;;20.03;37.96;100644.41;5059630;28;20063;-76
2023/04/11 04:30:56;;;;;;;1.00;0.90;;;;;;;19.96;38.14;100646.16;5045988;28;20117;-77
2023/04/11 04:33:24;;;;;;;1.33;0.80;;;;;;;19.94;38.25;100657.91;5050197;28;20480;-77
2023/04/11 04:35:56;;;;;;;1.85;1.27;;;;;;;19.93;38.22;100657.09;5047354;28;20037;-77
2023/04/11 04:38:24;;;;;;;1.20;0.70;;;;;;;19.92;38.19;100656.25;5050067;28;20041;-77
2023/04/11 04:40:56;;;;;;;1.48;0.93;;;;;;;19.93;38.22;100667.66;5050333;28;20072;-77
2023/04/11 04:43:23;;;;;;;1.58;0.88;;;;;;;19.90;38.33;100666.19;5046469;28;20028;-77
2023/04/11 04:46:02;;;;;;;1.65;1.10;;;;;;;19.87;38.28;100671.84;5050262;28;20048;-76
2023/04/11 04:48:36;;;;;;;1.58;0.75;;;;;;;19.88;38.31;100662.09;5047812;28;20102;-77
2023/04/11 04:51:04;;;;;;;1.90;0.95;;;;;;;19.86;38.26;100667.56;5048861;28;20037;-77
2023/04/11 04:53:33;;;;;;;1.50;0.90;;;;;;;19.92;38.30;100668.66;5049537;28;20144;-76
2023/04/11 04:56:00;;;;;;;1.55;0.90;;;;;;;19.86;38.35;100670.22;5061397;28;20032;-77
2023/04/11 04:58:28;;;;;;;1.50;0.95;;;;;;;19.85;38.32;100676.50;5042793;28;20037;-76
2023/04/11 05:00:56;;;;;;;1.38;0.95;;;;;;;19.83;38.34;100669.75;5048644;28;20106;-77
2023/04/11 05:03:29;;;;;;;1.38;0.85;;;;;;;19.77;38.56;100671.31;5057123;28;21612;-77
2023/04/11 05:05:55;;;;;;;0.90;0.57;;;;;;;19.85;38.30;100681.78;5059328;28;20047;-77
2023/04/11 05:08:21;;;;;;;1.02;0.77;;;;;;;19.80;38.43;100676.25;5048824;28;20056;-77
2023/04/11 05:10:47;;;;;;;0.90;0.90;;;;;;;19.85;38.40;100680.97;5045026;28;20021;-77
2023/04/11 05:13:13;;;;;;;1.30;1.02;;;;;;;19.82;38.36;100676.06;5032658;28;20047;-76
2023/04/11 05:15:38;;;;;;;1.40;0.70;;;;;;;19.86;38.26;100686.06;5041955;28;20033;-76
2023/04/11 05:18:04;;;;;;;2.10;0.93;;;;;;;19.81;38.36;100692.91;5046860;28;20049;-76
2023/04/11 05:20:33;;;;;;;1.50;1.10;;;;;;;19.82;38.38;100683.97;5044846;28;20108;-76
2023/04/11 05:22:59;;;;;;;2.13;1.20;;;;;;;19.83;38.44;100685.63;5031989;28;20037;-77
2023/04/11 05:25:24;;;;;;;1.30;0.82;;;;;;;19.79;38.36;100692.28;5041266;28;20052;-76
2023/04/11 05:27:50;;;;;;;0.70;0.70;;;;;;;19.76;38.42;100693.47;5048337;28;20707;-76
2023/04/11 05:30:20;;;;;;;2.38;1.10;;;;;;;19.85;38.25;100691.53;5047728;28;20075;-76
2023/04/11 05:32:47;;;;;;;1.92;1.05;;;;;;;19.85;38.22;100697.63;5043713;28;20044;-77
2023/04/11 05:35:13;;;;;;;1.20;1.00;;;;;;;19.84;38.28;100692.53;5040232;28;20060;-76
2023/04/11 05:37:49;;;;;;;1.05;0.65;;;;;;;19.76;38.49;100698.75;5045111;28;20119;-77
2023/04/11 05:40:15;;;;;;;1.20;0.63;;;;;;;19.80;38.38;100700.00;5049023;28;20107;-76
2023/04/11 05:42:41;;;;;;;1.10;1.00;;;;;;;19.81;38.28;100706.13;5044954;28;20041;-76
2023/04/11 05:45:07;;;;;;;1.15;0.80;;;;;;;19.83;38.29;100707.56;5047082;28;20071;-77
2023/04/11 05:47:32;;;;;;;1.80;0.90;;;;;;;19.88;38.25;100718.41;5045839;28;20218;-77
2023/04/11 05:49:58;;;;;;;0.85;0.57;;;;;;;19.84;38.26;100732.19;5058355;28;20029;-77
2023/04/11 05:52:24;;;;;;;1.42;0.70;;;;;;;19.80;38.39;100728.25;5048642;28;20043;-77
2023/04/11 05:54:49;;;;;;;1.65;0.75;;;;;;;19.76;38.46;100735.75;5048623;28;20040;-76
2023/04/11 05:57:16;;;;;;;1.90;1.10;;;;;;;19.76;38.37;100743.66;5049202;28;20040;-77
2023/04/11 05:59:41;;;;;;;1.35;1.00;;;;;;;19.77;38.55;100739.19;5049104;28;20033;-77
2023/04/11 06:02:07;;;;;;;0.95;0.73;;;;;;;19.81;38.36;100743.94;5051155;28;20617;-77
2023/04/11 06:04:33;;;;;;;1.48;0.93;;;;;;;19.75;38.31;100735.91;5052736;28;20035;-77
2023/04/11 06:06:59;;;;;;;1.15;0.90;;;;;;;19.76;38.20;100750.78;5047225;28;20694;-77
2023/04/11 06:09:25;;;;;;;1.30;0.75;;;;;;;19.80;38.29;100752.88;5046183;28;20041;-77
2023/04/11 06:11:51;;;;;;;0.77;0.52;;;;;;;19.76;38.33;100754.22;5045098;28;20571;-77
2023/04/11 06:14:16;;;;;;;0.75;0.60;;;;;;;19.78;38.08;100746.13;5044200;28;20051;-76
2023/04/11 06:16:42;;;;;;;1.52;0.77;;;;;;;19.80;38.32;100744.13;5044281;28;21445;-77
2023/04/11 06:19:08;;;;;;;1.17;0.88;;;;;;;19.74;38.29;100743.00;5045420;28;20042;-77
2023/04/11 06:21:33;;;;;;;0.98;0.60;;;;;;;19.87;38.13;100752.94;5046843;28;20506;-77
2023/04/11 06:24:07;;;;;;;1.20;0.80;;;;;;;20.41;37.11;100758.78;5043774;28;20032;-77
2023/04/11 06:26:32;;;;;;;1.98;0.95;;;;;;;20.95;36.10;100744.31;5040894;28;20100;-77
2023/04/11 06:28:58;;;;;;;1.20;0.88;;;;;;;21.21;35.34;100749.88;5045652;28;20045;-77
2023/04/11 06:31:23;;;;;;;1.02;0.63;;;;;;;21.41;35.16;100764.13;5042128;28;20041;-77
2023/04/11 06:33:49;;;;;;;1.88;0.93;;;;;;;21.46;35.12;100765.38;5043130;28;20041;-76
2023/04/11 06:36:14;;;;;;;1.80;0.98;;;;;;;21.49;35.22;100772.94;5044915;28;20045;-76
2023/04/11 06:38:41;;;;;;;1.00;0.80;;;;;;;21.48;35.42;100773.94;5052306;28;20307;-77
2023/04/11 06:41:06;;;;;;;1.20;0.88;;;;;;;21.40;35.45;100772.25;5043078;28;20053;-77
2023/04/11 06:43:32;;;;;;;1.25;1.15;;;;;;;21.43;35.45;100777.16;5048639;28;20067;-76
2023/04/11 06:45:57;;;;;;;1.15;0.70;;;;;;;21.41;35.65;100782.66;5048992;28;20041;-77
2023/04/11 06:48:23;;;;;;;0.40;0.40;;;;;;;21.39;35.51;100775.91;5045016;28;20037;-77
2023/04/11 06:50:49;;;;;;;1.10;1.00;;;;;;;21.35;35.64;100794.00;5044164;28;20033;-77
2023/04/11 06:53:14;;;;;;;1.80;0.73;;;;;;;21.33;35.56;100788.06;5042114;28;20130;-77
2023/04/11 06:55:40;;;;;;;1.80;0.60;;;;;;;21.25;35.61;100796.16;5043453;28;20454;-77
2023/04/11 06:58:06;;;;;;;1.58;0.93;;;;;;;21.18;35.80;100792.59;5043074;28;20033;-76
2023/04/11 07:00:31;;;;;;;1.45;0.70;;;;;;;21.09;35.93;100799.84;5045620;28;20045;-75
2023/04/11 07:02:58;;;;;;;0.63;0.63;;;;;;;20.97;36.18;100797.88;5044078;28;20036;-76
2023/04/11 07:05:25;;;;;;;2.08;1.00;;;;;;;21.08;36.17;100814.09;5043514;28;20064;-77
2023/04/11 07:07:50;;;;;;;2.58;1.05;;;;;;;21.13;35.96;100819.66;5046806;28;20041;-76
2023/04/11 07:10:16;;;;;;;1.27;0.77;;;;;;;21.13;35.90;100829.41;5048447;28;20040;-75
2023/04/11 07:12:41;;;;;;;1.35;0.80;;;;;;;21.04;36.14;100834.03;5046341;28;20053;-75
2023/04/11 07:15:07;;;;;;;2.50;0.85;;;;;;;20.83;36.49;100826.06;5051124;28;21924;-75
2023/04/11 07:17:33;;;;;;;0.93;0.55;;;;;;;20.84;36.54;100827.69;5050801;28;20102;-75
2023/04/11 07:19:59;;;;;;;1.73;0.65;;;;;;;20.84;36.82;100840.94;5048806;28;20037;-74
2023/04/11 07:22:25;;;;;;;1.20;0.90;;;;;;;20.71;37.04;100848.69;5048025;28;20045;-74
2023/04/11 07:24:51;;;;;;;0.50;0.50;;;;;;;20.70;37.02;100841.75;5048267;28;20041;-74
2023/04/11 07:27:17;;;;;;;1.77;1.10;;;;;;;20.82;36.67;100848.19;5053486;28;20537;-74
2023/04/11 07:29:43;;;;;;;0.95;0.85;;;;;;;20.80;36.56;100852.88;5046013;28;20087;-74
2023/04/11 07:32:08;;;;;;;1.13;0.75;;;;;;;20.80;36.90;100853.69;5050754;28;20069;-74
2023/04/11 07:34:34;;;;;;;1.45;0.70;;;;;;;20.82;36.70;100858.78;5046037;28;20402;-74
2023/04/11 07:36:59;;;;;;;1.60;0.88;;;;;;;20.65;37.23;100863.50;5045862;28;20048;-76
2023/04/11 07:39:26;;;;;;;1.38;0.88;;;;;;;20.53;37.39;100867.59;5048335;28;20045;-76
2023/04/11 07:41:55;;;;;;;1.08;0.98;;;;;;;20.56;37.32;100866.41;5044135;28;20052;-77
2023/04/11 07:44:20;;;;;;;2.00;1.07;;;;;;;20.65;37.06;100865.31;5052125;28;20044;-76
2023/04/11 07:46:46;;;;;;;2.13;1.20;;;;;;;20.95;36.60;100869.53;5050916;28;20040;-78
2023/04/11 07:49:11;;;;;;;1.83;0.80;;;;;;;21.34;35.63;100860.41;5064811;28;20572;-76
2023/04/11 07:51:37;;;;;;;1.17;0.70;;;;;;;21.54;35.54;100866.72;5049425;28;20395;-77
2023/04/11 07:54:03;;;;;;;1.58;0.95;;;;;;;21.64;35.06;100866.41;5051939;28;20033;-78
2023/04/11 07:56:28;;;;;;;2.90;1.60;;;;;;;21.73;35.25;100867.13;5052526;28;20047;-78
2023/04/11 07:58:54;;;;;;;2.28;1.00;;;;;;;21.72;35.18;100876.88;5066797;28;20040;-77
2023/04/11 08:01:21;;;;;;;2.63;0.80;;;;;;;21.63;35.43;100870.06;5049094;28;20049;-79
2023/04/11 08:03:47;;;;;;;1.25;1.02;;;;;;;21.61;35.54;100875.56;5049894;28;20033;-78
2023/04/11 08:06:12;;;;;;;1.67;1.17;;;;;;;21.62;35.44;100887.81;5047449;28;20041;-78
2023/04/11 08:08:38;;;;;;;3.45;1.17;;;;;;;21.66;35.44;100878.47;5050241;28;20040;-77
2023/04/11 08:11:03;;;;;;;5.03;1.30;;;;;;;21.59;35.29;100890.84;5054797;28;20041;-77
2023/04/11 08:13:29;;;;;;;2.45;0.82;;;;;;;21.56;35.44;100901.81;5053881;28;20044;-78
2023/04/11 08:15:54;;;;;;;2.20;1.20;;;;;;;21.55;35.41;100909.97;5053859;28;20471;-78
2023/04/11 08:18:20;;;;;;;3.50;1.40;;;;;;;21.54;35.55;100905.66;5053751;28;20037;-78
2023/04/11 08:20:47;;;;;;;1.75;1.00;;;;;;;21.35;35.95;100905.25;5050381;28;20033;-78
2023/04/11 08:23:13;;;;;;;2.85;1.20;;;;;;;21.39;36.00;100908.38;5051996;28;20097;-77
2023/04/11 08:25:40;;;;;;;3.17;1.42;;;;;;;21.26;35.94;100905.56;5054526;28;20053;-78
2023/04/11 08:28:08;;;;;;;2.75;1.13;;;;;;;21.20;36.24;100909.78;5051758;28;20037;-79
2023/04/11 08:30:34;;;;;;;2.60;1.27;;;;;;;21.23;36.32;100921.81;5054610;28;20057;-78
2023/04/11 08:33:00;;;;;;;1.25;0.73;;;;;;;21.22;36.19;100928.13;5054033;28;20104;-79
2023/04/11 08:35:26;;;;;;;5.25;1.60;;;;;;;21.07;36.33;100934.25;5054463;28;20045;-80
2023/04/11 08:37:52;;;;;;;2.47;0.93;;;;;;;21.06;36.57;100929.97;5049972;28;20546;-80
2023/04/11 08:40:17;;;;;;;2.30;1.30;;;;;;;21.01;36.44;100942.13;5050138;28;20122;-78
2023/04/11 08:42:43;;;;;;;2.38;1.02;;;;;;;20.88;36.59;100923.41;5054385;28;20087;-78
2023/04/11 08:45:09;;;;;;;0.73;0.63;;;;;;;20.97;36.72;100932.88;5049395;28;20485;-79
2023/04/11 08:47:35;;;;;;;2.33;1.20;;;;;;;20.90;36.72;100930.16;5054980;28;20041;-78
2023/04/11 08:50:02;;;;;;;2.60;1.33;;;;;;;20.92;36.67;100941.38;5050162;28;20036;-77
2023/04/11 08:52:30;;;;;;;2.22;1.10;;;;;;;20.88;36.99;100928.72;5052967;28;20040;-78
2023/04/11 08:54:55;;;;;;;3.30;1.30;;;;;;;20.86;37.08;100933.38;5053755;28;20627;-77
2023/04/11 08:57:25;;;;;;;1.92;1.15;;;;;;;20.77;36.90;100930.81;5050399;28;20052;-78
2023/04/11 08:59:52;;;;;;;1.95;0.90;;;;;;;20.77;37.14;100935.28;5065643;28;20041;-78
2023/04/11 09:02:18;;;;;;;1.80;0.90;;;;;;;20.82;37.07;100938.19;5040687;28;20040;-78
2023/04/11 09:04:43;;;;;;;3.15;1.38;;;;;;;20.75;37.01;100940.75;5051081;28;20052;-78
2023/04/11 09:07:10;;;;;;;2.13;1.13;;;;;;;20.78;37.07;100940.38;5051427;28;20033;-78
2023/04/11 09:09:36;;;;;;;1.23;1.02;;;;;;;20.73;37.02;100947.25;5047887;28;20049;-78
2023/04/11 09:12:03;;;;;;;1.92;1.25;;;;;;;20.73;37.04;100944.59;5049478;28;20073;-78
2023/04/11 09:14:30;;;;;;;3.72;1.08;;;;;;;20.75;36.87;100950.53;5050446;28;20045;-78
2023/04/11 09:17:03;;;;;;;1.73;1.10;;;;;;;20.66;37.12;100943.69;5050818;28;20426;-77
2023/04/11 09:19:31;;;;;;;3.55;1.38;;;;;;;20.66;37.09;100952.44;5051310;28;20043;-76
2023/04/11 09:21:59;;;;;;;2.35;0.93;;;;;;;20.63;37.09;100960.72;5050442;28;20438;-79
2023/04/11 09:24:25;;;;;;;1.58;1.02;;;;;;;20.64;37.23;100980.88;5048617;28;20087;-78
2023/04/11 09:27:07;;;;;;;1.50;0.90;;;;;;;20.60;36.82;100961.09;5044783;28;20055;-77
2023/04/11 09:29:38;;;;;;;1.48;1.20;;;;;;;20.56;37.35;100973.06;5049308;28;20041;-78
2023/04/11 09:32:04;;;;;;;1.65;1.10;;;;;;;20.63;37.30;100992.47;5047893;28;20044;-77
2023/04/11 09:34:30;;;;;;;2.42;0.90;;;;;;;20.61;37.33;100997.13;5049991;28;20075;-77
2023/04/11 09:36:55;;;;;;;3.35;1.15;;;;;;;20.47;37.39;100976.78;5043707;28;20044;-76
2023/04/11 09:39:21;;;;;;;2.03;0.98;;;;;;;20.54;37.46;100990.13;5047692;28;20034;-77
2023/04/11 09:41:46;;;;;;;1.77;0.93;;;;;;;20.49;37.62;100977.44;5049202;28;20581;-77
2023/04/11 09:44:12;;;;;;;2.20;1.42;;;;;;;20.46;37.37;100981.22;5052848;28;20025;-77
2023/04/11 09:46:57;;;;;;;1.85;0.98;;;;;;;20.51;37.48;100988.66;5052064;28;20048;-77
2023/04/11 09:49:23;;;;;;;1.55;0.80;;;;;;;20.48;37.32;100976.59;5047901;28;20033;-76
2023/04/11 09:51:50;;;;;;;2.15;1.15;;;;;;;20.47;37.53;100974.97;5049415;28;20045;-77
2023/04/11 09:54:19;;;;;;;1.35;0.95;;;;;;;20.50;37.48;100974.59;5053385;28;20514;-76
2023/04/11 09:56:44;;;;;;;1.20;0.70;;;;;;;20.47;37.26;100977.63;5049266;28;20033;-78
2023/04/11 09:59:11;;;;;;;2.88;1.30;;;;;;;20.48;37.42;100978.44;5050117;28;20082;-75
2023/04/11 10:01:37;;;;;;;2.13;0.90;;;;;;;20.41;37.52;100983.59;5043441;28;20059;-75
2023/04/11 10:04:03;;;;;;;1.15;0.75;;;;;;;20.45;37.43;100979.59;5048597;28;20502;-75
2023/04/11 10:06:58;;;;;;;1.75;1.00;;;;;;;20.60;37.17;100992.03;5044928;28;20067;-75
2023/04/11 10:09:26;;;;;;;2.40;1.00;;;;;;;20.90;36.40;100990.22;5052910;28;20035;-76
2023/04/11 10:11:52;;;;;;;2.25;1.00;;;;;;;20.95;36.34;101009.03;5051211;28;20061;-74
2023/04/11 10:14:35;;;;;;;2.20;1.13;;;;;;;20.87;36.62;100996.72;5047723;28;20061;-75
2023/04/11 10:17:18;;;;;;;2.42;1.42;;;;;;;20.89;36.52;100991.22;5044815;28;20039;-75
2023/04/11 10:19:44;;;;;;;3.40;1.23;;;;;;;21.02;36.23;100996.72;5058270;28;20047;-75
2023/04/11 10:22:30;;;;;;;1.55;0.70;;;;;;;20.91;36.34;100991.88;5043984;28;20036;-75
2023/04/11 10:25:16;;;;;;;2.03;0.80;;;;;;;20.91;36.53;101000.63;5045855;28;20053;-75
2023/04/11 10:27:52;;;;;;;1.50;0.80;;;;;;;20.86;36.53;101013.59;5047697;28;20435;-74
2023/04/11 10:30:18;;;;;;;1.35;1.10;;;;;;;20.88;36.55;101010.78;5039607;28;20056;-75
2023/04/11 10:33:28;;;;;;;6.72;1.77;;;;;;;20.63;36.47;101018.94;5047641;28;20128;-71
2023/04/11 10:36:11;;;;;;;3.25;1.40;;;;;;;20.86;36.31;101007.50;5041846;28;20494;-72
2023/04/11 10:38:42;;;;;;;4.45;1.70;;;;;;;21.11;35.84;101009.66;5049014;28;20115;-73
2023/04/11 10:41:41;;;;;;;2.75;1.42;;;;;;;20.85;36.28;101034.97;5043074;28;20059;-69
2023/04/11 10:44:23;;;;;;;3.95;1.45;;;;;;;20.95;36.46;101068.09;5056183;28;20049;-68
2023/04/11 10:46:55;;;;;;;2.85;1.25;;;;;;;21.32;35.45;101067.22;5046542;28;20032;-68
2023/04/11 10:49:32;;;;;;;3.00;1.38;;;;;;;21.41;35.32;101062.66;5042792;28;20041;-69
2023/04/11 10:52:23;;;;;;;2.53;1.23;;;;;;;21.45;35.11;101076.34;5046888;28;20033;-68
2023/04/11 10:54:53;;;;;;;2.75;1.70;;;;;;;21.26;35.69;101060.00;5043255;28;20071;-69
2023/04/11 10:57:19;;;;;;;5.80;1.40;;;;;;;21.25;35.40;101068.13;5046795;28;20064;-69
2023/04/11 10:59:48;;;;;;;3.38;1.33;;;;;;;21.15;35.84;101072.84;5042414;28;20041;-68
2023/04/11 11:02:15;;;;;;;1.90;1.13;;;;;;;21.06;35.97;101070.31;5044895;28;20101;-68
2023/04/11 11:04:40;;;;;;;2.20;1.23;;;;;;;21.02;36.11;101070.84;5044251;28;20097;-68
2023/04/11 11:07:11;;;;;;;3.28;1.50;;;;;;;20.96;36.48;101077.66;5041687;28;20049;-70
2023/04/11 11:09:37;;;;;;;2.03;1.02;;;;;;;20.96;36.22;101090.09;5042437;28;20043;-69
2023/04/11 11:12:11;;;;;;;2.28;1.08;;;;;;;20.83;36.49;101098.66;5045481;28;20071;-69
2023/04/11 11:14:38;;;;;;;2.75;1.10;;;;;;;20.71;36.76;101100.09;5043322;28;20069;-66
2023/04/11 11:17:04;;;;;;;2.22;1.00;;;;;;;20.65;36.61;101095.53;5042881;28;20041;-70
2023/04/11 11:19:30;;;;;;;2.08;1.13;;;;;;;20.60;36.82;101114.56;5043966;28;20078;-69
2023/04/11 11:22:00;;;;;;;3.72;1.25;;;;;;;20.52;36.94;101115.44;5042429;28;20203;-68
2023/04/11 11:24:25;;;;;;;2.40;1.15;;;;;;;20.58;36.88;101132.44;5044652;28;20041;-69
2023/04/11 11:26:53;;;;;;;1.75;1.10;;;;;;;20.53;36.98;101132.16;5042604;28;20825;-68